Flugplatz Gunzenhausen-Reutberg (EDMH)

Hier findest Du alle Informationen zum Flugplatz Gunzenhausen-Reutberg (EDMH).

Informationen für Piloten zum Flugplatz Gunzenhausen-Reutberg

Hier findest Du alle relevanten Informationen, die Du als Pilot benötigst, um Gunzenhausen-Reutberg anzufliegen.

Flugplatz: Gunzenhausen-Reutberg ICAO-Code: EDMH
Frequenz Turm: 118,550 Mhz GAFOR Gebiet: 55
Frequenz Ground: 118,550 Mhz Mogas: nein
Platzrunde: SE 2300 ft Landegebühr: -
Platzhöhe: - Sunrise: 06:55 Uhr UTC
Pisten: 06/24 - 530 m x 15 m, ASPH Sunset: 15:21 Uhr UTC

Mitglieder, die in Gunzenhausen-Reutberg fliegen

Flugwetter am Flugplatz Gunzenhausen-Reutberg

Die METAR Information stammen aus EDDN (48.18 km entfernt).

METAR Code:
2019/11/28 22:50
EDDN 282250Z 22009KT 9999 -RA BKN022 08/05 Q1001

Flugschulen am Flugplatz Gunzenhausen-Reutberg

Am Flugplatz Gunzenhausen-Reutberg gibt es leider keine Flugschule.

Benachbarte Flugplätze und Flugschulen

Es gibt 23 weitere Flugplätze in einem Umkreis von 50 km um den Flugplatz Gunzenhausen-Reutberg.

Jetzt anmelden

Passwort vergessen

Umfrage Archiv

Lasst Ihr Euch bei Überlandflügen von FIS begleiten?

Ja, immer!
44.6 %
Ja, unregelmäßig!
28.9 %
Ja, aber nur selten!
21.7 %
Nein, nie!
4.8 %
Stimmen: 83 | Diskussion
Anzeige: Roland Aircraft
Statistik Alle Mitglieder

Aktuell sind 32 Besucher online.

Anzeige: VFR Sprechfunk Simulator


Anzeige: Pocket FMS